createdAt,value
2019-01-04T00:01:40.204Z,7.90
2019-01-04T00:04:13.796Z,8.50
2019-01-04T00:06:42.555Z,8.20
2019-01-04T00:09:11.189Z,8.30
2019-01-04T00:11:39.927Z,8.73
2019-01-04T00:14:08.556Z,9.00
2019-01-04T00:16:37.275Z,8.45
2019-01-04T00:19:06.016Z,8.23
2019-01-04T00:21:35.063Z,9.20
2019-01-04T00:24:03.657Z,8.20
2019-01-04T00:26:32.546Z,8.83
2019-01-04T00:29:01.207Z,8.43
2019-01-04T00:31:29.822Z,8.57
2019-01-04T00:33:58.496Z,8.33
2019-01-04T00:36:27.136Z,8.80
2019-01-04T00:38:55.701Z,8.13
2019-01-04T00:41:26.013Z,8.07
2019-01-04T00:43:54.706Z,9.43
2019-01-04T00:46:23.304Z,8.73
2019-01-04T00:48:51.951Z,9.37
2019-01-04T00:51:20.713Z,9.47
2019-01-04T00:53:49.349Z,9.47
2019-01-04T00:57:10.657Z,9.60
2019-01-04T01:00:16.150Z,9.90
2019-01-04T01:03:14.709Z,9.70
2019-01-04T01:06:11.732Z,9.20
2019-01-04T01:09:11.293Z,9.73
2019-01-04T01:12:23.646Z,10.13
2019-01-04T01:16:04.339Z,10.27
2019-01-04T01:19:14.896Z,9.67
2019-01-04T01:22:20.158Z,9.83
2019-01-04T01:25:28.236Z,10.10
2019-01-04T01:28:40.301Z,10.13
2019-01-04T01:31:45.228Z,10.87
2019-01-04T01:34:54.447Z,10.53
2019-01-04T01:37:59.345Z,10.08
2019-01-04T01:41:16.429Z,10.45
2019-01-04T01:44:27.126Z,11.17
2019-01-04T01:47:22.468Z,10.87
2019-01-04T01:50:43.752Z,9.80
2019-01-04T01:53:12.428Z,10.97
2019-01-04T01:55:41.244Z,11.70
2019-01-04T01:58:10.029Z,11.23
2019-01-04T02:00:38.642Z,12.33
2019-01-04T02:03:07.262Z,11.87
2019-01-04T02:05:36.062Z,11.50
2019-01-04T02:08:04.770Z,11.38
2019-01-04T02:10:33.405Z,11.23
2019-01-04T02:13:01.964Z,10.43
2019-01-04T02:15:30.642Z,10.70
2019-01-04T02:18:00.313Z,10.27
2019-01-04T02:20:28.840Z,10.27
2019-01-04T02:22:57.539Z,10.57
2019-01-04T02:25:26.152Z,11.53
2019-01-04T02:27:54.788Z,11.90
2019-01-04T02:30:23.441Z,10.17
2019-01-04T02:32:52.076Z,10.33
2019-01-04T02:35:20.745Z,10.50
2019-01-04T02:37:49.446Z,11.00
2019-01-04T02:40:18.124Z,11.50
2019-01-04T02:42:46.735Z,12.10
2019-01-04T02:45:15.353Z,12.27
2019-01-04T02:47:43.961Z,12.60
2019-01-04T02:50:12.653Z,12.43
2019-01-04T02:52:42.338Z,12.78
2019-01-04T02:55:11.058Z,12.37
2019-01-04T02:57:39.803Z,13.35
2019-01-04T03:00:08.766Z,12.53
2019-01-04T03:02:37.364Z,13.47
2019-01-04T03:05:06.082Z,14.47
2019-01-04T03:07:35.015Z,13.40
2019-01-04T03:10:03.794Z,14.17
2019-01-04T03:12:32.416Z,12.70
2019-01-04T03:15:01.255Z,13.60
2019-01-04T03:17:29.884Z,13.87
2019-01-04T03:19:58.573Z,13.98
2019-01-04T03:22:27.228Z,14.63
2019-01-04T03:24:55.905Z,14.70
2019-01-04T03:27:24.516Z,13.93
2019-01-04T03:29:53.099Z,15.85
2019-01-04T03:32:21.687Z,15.27
2019-01-04T03:34:50.405Z,16.40
2019-01-04T03:37:19.090Z,16.87
2019-01-04T03:39:47.693Z,16.00
2019-01-04T03:42:16.379Z,15.40
2019-01-04T03:44:45.067Z,15.77
2019-01-04T03:47:13.802Z,16.07
2019-01-04T03:49:42.558Z,16.13
2019-01-04T03:52:11.187Z,16.20
2019-01-04T03:54:39.919Z,16.30
2019-01-04T03:57:08.611Z,16.03
2019-01-04T03:59:37.205Z,16.27
2019-01-04T04:02:06.781Z,16.37
2019-01-04T04:04:35.584Z,17.50
2019-01-04T04:07:04.218Z,16.35
2019-01-04T04:09:32.958Z,16.90
2019-01-04T04:12:01.833Z,15.20
2019-01-04T04:14:32.236Z,14.93
2019-01-04T04:17:00.980Z,16.10
2019-01-04T04:19:29.728Z,16.10
2019-01-04T04:21:58.352Z,15.37
2019-01-04T04:24:26.962Z,16.03
2019-01-04T04:26:55.733Z,15.43
2019-01-04T04:29:24.604Z,16.53
2019-01-04T04:31:53.208Z,16.87
2019-01-04T04:34:21.973Z,16.00
2019-01-04T04:36:50.631Z,15.53
2019-01-04T04:39:19.412Z,15.30
2019-01-04T04:41:48.018Z,14.93
2019-01-04T04:44:16.692Z,15.20
2019-01-04T04:46:45.432Z,15.13
2019-01-04T04:49:14.117Z,16.17
2019-01-04T04:51:42.873Z,15.63
2019-01-04T04:54:11.574Z,16.02
2019-01-04T04:56:40.368Z,15.93
2019-01-04T04:59:09.022Z,15.73
2019-01-04T05:01:37.957Z,16.23
2019-01-04T05:04:07.264Z,14.95
2019-01-04T05:06:35.907Z,15.10
2019-01-04T05:09:06.072Z,16.37
2019-01-04T05:11:34.749Z,15.07
2019-01-04T05:14:03.480Z,14.57
2019-01-04T05:16:32.242Z,14.13
2019-01-04T05:19:00.951Z,14.40
2019-01-04T05:21:29.651Z,14.80
2019-01-04T05:23:58.304Z,14.87
2019-01-04T05:26:26.974Z,14.00
2019-01-04T05:28:55.656Z,13.20
2019-01-04T05:31:25.137Z,13.53
2019-01-04T05:33:53.721Z,12.37
2019-01-04T05:36:22.321Z,13.00
2019-01-04T05:38:50.902Z,13.03
2019-01-04T05:41:19.475Z,14.20
2019-01-04T05:43:48.041Z,12.20
2019-01-04T05:46:16.596Z,15.40
2019-01-04T05:48:45.173Z,11.88
2019-01-04T05:51:13.929Z,14.43
2019-01-04T05:53:42.512Z,13.73
2019-01-04T05:56:11.103Z,12.65
2019-01-04T05:58:39.656Z,12.90
2019-01-04T06:01:08.220Z,14.47
2019-01-04T06:03:36.798Z,13.37
2019-01-04T06:06:05.370Z,12.53
2019-01-04T06:08:33.944Z,12.83
2019-01-04T06:11:02.535Z,12.77
2019-01-04T06:13:31.114Z,12.17
2019-01-04T06:15:59.704Z,13.40
2019-01-04T06:18:31.529Z,13.33
2019-01-04T06:21:00.096Z,13.55
2019-01-04T06:23:28.680Z,12.85
2019-01-04T06:25:57.250Z,13.80
2019-01-04T06:28:25.843Z,13.67
2019-01-04T06:30:54.432Z,13.27
2019-01-04T06:33:23.043Z,13.27
2019-01-04T06:35:51.617Z,14.07
2019-01-04T06:38:20.195Z,13.47
2019-01-04T06:40:48.770Z,13.53
2019-01-04T06:43:17.364Z,14.27
2019-01-04T06:45:45.950Z,15.43
2019-01-04T06:48:14.646Z,16.53
2019-01-04T06:50:43.239Z,14.67
2019-01-04T06:53:11.832Z,13.77
2019-01-04T06:55:58.480Z,14.60
2019-01-04T06:58:27.065Z,14.07
2019-01-04T07:00:55.644Z,14.05
2019-01-04T07:03:24.253Z,14.40
2019-01-04T07:05:52.969Z,13.97
2019-01-04T07:08:21.541Z,13.60
2019-01-04T07:10:51.024Z,13.67
2019-01-04T07:13:19.589Z,13.67
2019-01-04T07:15:48.179Z,14.83
2019-01-04T07:18:16.745Z,14.30
2019-01-04T07:20:45.359Z,16.57
2019-01-04T07:23:13.937Z,16.37
2019-01-04T07:25:42.500Z,19.37
2019-01-04T07:28:11.064Z,15.20
2019-01-04T07:30:39.641Z,16.97
2019-01-04T07:33:08.274Z,17.03
2019-01-04T07:35:36.873Z,14.63
2019-01-04T07:38:05.449Z,15.17
2019-01-04T07:40:34.028Z,15.47
2019-01-04T07:43:02.588Z,14.50
2019-01-04T07:45:31.174Z,15.13
2019-01-04T07:47:59.724Z,14.70
2019-01-04T07:50:28.287Z,14.20
2019-01-04T07:52:56.871Z,12.87
2019-01-04T07:55:27.066Z,14.93
2019-01-04T07:57:55.643Z,14.30
2019-01-04T08:00:24.232Z,12.73
2019-01-04T08:02:59.659Z,11.97
2019-01-04T08:05:29.131Z,11.97
2019-01-04T08:07:57.731Z,11.73
2019-01-04T08:10:26.296Z,11.50
2019-01-04T08:12:54.864Z,11.55
2019-01-04T08:15:23.457Z,10.43
2019-01-04T08:17:52.032Z,10.43
2019-01-04T08:20:20.600Z,11.40
2019-01-04T08:22:49.997Z,11.73
2019-01-04T08:25:18.557Z,12.13
2019-01-04T08:27:47.145Z,13.27
2019-01-04T08:30:17.539Z,13.03
2019-01-04T08:32:46.117Z,11.68
2019-01-04T08:35:20.140Z,12.23
2019-01-04T08:37:48.700Z,12.47
2019-01-04T08:40:17.272Z,11.65
2019-01-04T08:42:45.840Z,11.20
2019-01-04T08:45:15.318Z,11.93
2019-01-04T08:47:43.895Z,10.80
2019-01-04T08:50:13.334Z,11.47
2019-01-04T08:52:42.052Z,11.95
2019-01-04T08:55:13.454Z,12.40
2019-01-04T08:57:42.059Z,12.37
2019-01-04T09:00:12.524Z,12.53
2019-01-04T09:02:41.094Z,12.47
2019-01-04T09:05:09.674Z,10.80
2019-01-04T09:07:38.236Z,12.20
2019-01-04T09:10:07.996Z,10.37
2019-01-04T09:12:36.574Z,16.23
2019-01-04T09:15:07.325Z,13.23
2019-01-04T09:17:37.096Z,11.88
2019-01-04T09:20:07.586Z,11.07
2019-01-04T09:22:36.220Z,11.43
2019-01-04T09:25:05.452Z,9.93
2019-01-04T09:27:34.014Z,10.63
2019-01-04T09:30:02.597Z,11.53
2019-01-04T09:32:31.173Z,10.13
2019-01-04T09:34:59.727Z,9.53
2019-01-04T09:37:28.312Z,9.43
2019-01-04T09:39:56.886Z,8.90
2019-01-04T09:42:26.519Z,10.27
2019-01-04T09:44:55.096Z,11.63
2019-01-04T09:47:30.840Z,12.57
2019-01-04T09:49:59.692Z,12.37
2019-01-04T09:52:28.273Z,11.23
2019-01-04T09:54:56.844Z,8.93
2019-01-04T09:57:25.588Z,14.27
2019-01-04T09:59:54.170Z,9.85
2019-01-04T10:02:22.740Z,10.10
2019-01-04T10:04:51.367Z,9.73
2019-01-04T10:07:19.935Z,10.30
2019-01-04T10:09:48.521Z,10.77
2019-01-04T10:12:17.110Z,10.95
2019-01-04T10:14:45.700Z,12.67
2019-01-04T10:17:14.260Z,11.77
2019-01-04T10:19:42.833Z,9.68
2019-01-04T10:22:11.405Z,13.07
2019-01-04T10:24:39.989Z,14.50
2019-01-04T10:27:08.568Z,20.83
2019-01-04T10:29:37.150Z,7.53
2019-01-04T10:32:05.718Z,7.33
2019-01-04T10:34:34.288Z,7.43
2019-01-04T10:37:03.136Z,7.97
2019-01-04T10:39:31.715Z,8.50
2019-01-04T10:42:00.348Z,8.33
2019-01-04T10:44:28.924Z,8.07
2019-01-04T10:46:57.525Z,9.27
2019-01-04T10:49:26.288Z,9.33
2019-01-04T10:52:00.804Z,9.03
2019-01-04T10:54:29.381Z,8.50
2019-01-04T10:56:57.939Z,8.63
2019-01-04T10:59:26.526Z,8.80
2019-01-04T11:01:55.117Z,8.20
2019-01-04T11:04:23.728Z,7.50
2019-01-04T11:06:53.316Z,7.67
2019-01-04T11:09:21.875Z,7.67
2019-01-04T11:11:50.479Z,7.70
2019-01-04T11:14:19.071Z,7.75
2019-01-04T11:16:47.669Z,8.27
2019-01-04T11:19:16.232Z,7.53
2019-01-04T11:21:44.796Z,7.80
2019-01-04T11:24:37.007Z,6.13
2019-01-04T11:27:07.941Z,7.00
2019-01-04T11:30:00.189Z,5.30
2019-01-04T11:32:53.960Z,5.28
2019-01-04T11:35:55.215Z,5.50
2019-01-04T11:38:40.480Z,6.60
2019-01-04T11:41:59.407Z,4.77
2019-01-04T11:45:26.111Z,4.60
2019-01-04T11:48:54.467Z,4.07
2019-01-04T11:51:44.784Z,3.77
2019-01-04T11:54:17.547Z,5.70
2019-01-04T11:56:46.128Z,4.45
2019-01-04T11:59:14.767Z,5.97
2019-01-04T12:01:44.056Z,6.13
2019-01-04T12:04:12.613Z,3.50
2019-01-04T12:06:41.224Z,6.13
2019-01-04T12:09:11.999Z,7.30
2019-01-04T12:11:40.586Z,6.77
2019-01-04T12:14:09.148Z,3.90
2019-01-04T12:16:37.708Z,3.73
2019-01-04T12:19:06.264Z,8.20
2019-01-04T12:21:34.845Z,4.87
2019-01-04T12:24:03.408Z,2.52
2019-01-04T12:26:31.981Z,4.60
2019-01-04T12:29:00.605Z,3.70
2019-01-04T12:31:29.187Z,2.23
2019-01-04T12:33:57.761Z,3.00
2019-01-04T12:36:26.342Z,2.17
2019-01-04T12:38:54.901Z,2.20
2019-01-04T12:41:23.468Z,1.90
2019-01-04T12:43:52.082Z,1.70
2019-01-04T12:46:21.918Z,2.53
2019-01-04T12:48:50.485Z,2.13
2019-01-04T12:51:19.133Z,2.33
2019-01-04T12:53:47.720Z,1.97
2019-01-04T12:56:16.289Z,2.03
2019-01-04T12:58:44.856Z,2.50
2019-01-04T13:01:13.404Z,2.23
2019-01-04T13:03:42.071Z,2.27
2019-01-04T13:06:10.646Z,2.20
2019-01-04T13:08:39.230Z,2.08
2019-01-04T13:11:07.779Z,2.70
2019-01-04T13:13:37.224Z,2.22
2019-01-04T13:16:05.833Z,2.30
2019-01-04T13:18:34.408Z,2.20
2019-01-04T13:21:02.978Z,2.40
2019-01-04T13:23:31.594Z,2.57
2019-01-04T13:26:00.158Z,2.27
2019-01-04T13:28:28.736Z,2.60
2019-01-04T13:30:57.302Z,2.43
2019-01-04T13:33:25.898Z,2.20
2019-01-04T13:35:55.040Z,2.30
2019-01-04T13:38:23.596Z,2.40
2019-01-04T13:40:52.211Z,2.83
2019-01-04T13:43:20.760Z,2.40
2019-01-04T13:45:49.319Z,2.83
2019-01-04T13:48:17.860Z,2.43
2019-01-04T13:50:46.444Z,2.87
2019-01-04T13:53:15.012Z,2.70
2019-01-04T13:55:43.560Z,3.27
2019-01-04T13:58:13.128Z,2.70
2019-01-04T14:00:41.688Z,2.93
2019-01-04T14:03:10.428Z,2.83
2019-01-04T14:05:39.016Z,2.80
2019-01-04T14:08:07.568Z,2.80
2019-01-04T14:10:36.145Z,3.97
2019-01-04T14:13:09.265Z,3.20
2019-01-04T14:15:35.023Z,3.17
2019-01-04T14:18:03.635Z,3.10
2019-01-04T14:20:32.187Z,3.00
2019-01-04T14:23:00.754Z,3.37
2019-01-04T14:25:29.532Z,3.00
2019-01-04T14:27:58.112Z,2.90
2019-01-04T14:30:26.953Z,3.10
2019-01-04T14:32:55.526Z,3.20
2019-01-04T14:35:24.092Z,4.20
2019-01-04T14:37:53.019Z,5.13
2019-01-04T14:40:21.645Z,3.70
2019-01-04T14:42:50.228Z,4.13
2019-01-04T14:45:18.823Z,7.13
2019-01-04T14:47:47.384Z,3.90
2019-01-04T14:50:15.953Z,3.97
2019-01-04T14:52:44.509Z,4.33
2019-01-04T14:55:13.152Z,3.62
2019-01-04T14:57:41.726Z,3.73
2019-01-04T15:00:12.293Z,4.03
2019-01-04T15:02:40.860Z,4.70
2019-01-04T15:05:09.439Z,4.80
2019-01-04T15:07:38.017Z,5.57
2019-01-04T15:10:08.603Z,4.65
2019-01-04T15:12:37.173Z,4.50
2019-01-04T15:15:06.008Z,5.80
2019-01-04T15:17:34.591Z,5.30
2019-01-04T15:20:03.304Z,5.10
2019-01-04T15:22:31.888Z,4.87
2019-01-04T15:25:00.451Z,5.70
2019-01-04T15:27:30.607Z,10.53
2019-01-04T15:29:59.177Z,5.80
2019-01-04T15:32:27.752Z,6.03
2019-01-04T15:34:56.348Z,6.17
2019-01-04T15:37:25.019Z,6.27
2019-01-04T15:39:53.598Z,7.17
2019-01-04T15:42:22.168Z,7.37
2019-01-04T15:44:50.732Z,6.83
2019-01-04T15:47:19.334Z,6.83
2019-01-04T15:49:47.932Z,6.62
2019-01-04T15:52:16.511Z,8.17
2019-01-04T15:54:45.077Z,8.03
2019-01-04T15:57:13.723Z,7.83
2019-01-04T15:59:43.204Z,6.97
2019-01-04T16:02:11.818Z,6.70
2019-01-04T16:04:40.403Z,7.10
2019-01-04T16:07:09.170Z,7.57
2019-01-04T16:09:37.725Z,7.67
2019-01-04T16:12:06.462Z,8.53
2019-01-04T16:14:35.075Z,7.57
2019-01-04T16:17:03.639Z,8.73
2019-01-04T16:19:32.212Z,22.20
2019-01-04T16:22:01.072Z,9.23
2019-01-04T16:24:29.655Z,10.13
2019-01-04T16:26:58.278Z,9.00
2019-01-04T16:29:26.864Z,10.20
2019-01-04T16:31:55.443Z,10.13
2019-01-04T16:34:24.011Z,9.40
2019-01-04T16:36:52.595Z,9.67
2019-01-04T16:39:21.156Z,14.00
2019-01-04T16:41:49.748Z,15.60
2019-01-04T16:44:18.338Z,12.97
2019-01-04T16:46:46.892Z,11.07
2019-01-04T16:49:15.480Z,11.83
2019-01-04T16:51:45.233Z,12.33
2019-01-04T16:54:13.807Z,12.60
2019-01-04T16:56:42.383Z,12.85
2019-01-04T16:59:10.948Z,14.27
2019-01-04T17:01:39.623Z,12.90
2019-01-04T17:04:08.182Z,12.87
2019-01-04T17:06:37.029Z,12.50
2019-01-04T17:09:07.892Z,10.93
2019-01-04T17:11:36.899Z,13.70
2019-01-04T17:14:05.469Z,17.63
2019-01-04T17:16:34.329Z,13.97
2019-01-04T17:19:15.114Z,12.83
2019-01-04T17:21:45.034Z,12.50
2019-01-04T17:24:14.583Z,15.00
2019-01-04T17:26:43.339Z,11.27
2019-01-04T17:29:12.456Z,12.23
2019-01-04T17:31:41.139Z,11.68
2019-01-04T17:34:09.888Z,11.73
2019-01-04T17:36:38.461Z,11.40
2019-01-04T17:39:08.338Z,12.13
2019-01-04T17:41:36.994Z,12.40
2019-01-04T17:44:05.656Z,11.47
2019-01-04T17:46:35.211Z,10.57
2019-01-04T17:49:04.187Z,10.75
2019-01-04T17:51:34.763Z,12.97
2019-01-04T17:54:03.373Z,11.20
2019-01-04T17:56:32.091Z,10.83
2019-01-04T17:59:00.708Z,10.30
2019-01-04T18:01:29.423Z,10.03
2019-01-04T18:03:58.085Z,11.70
2019-01-04T18:06:26.652Z,11.60
2019-01-04T18:08:55.235Z,9.90
2019-01-04T18:11:25.320Z,9.97
2019-01-04T18:13:54.196Z,10.63
2019-01-04T18:16:22.815Z,10.90
2019-01-04T18:18:51.458Z,12.37
2019-01-04T18:21:20.054Z,9.70
2019-01-04T18:23:48.642Z,12.87
2019-01-04T18:26:17.241Z,13.90
2019-01-04T18:28:45.811Z,9.83
2019-01-04T18:31:14.523Z,9.63
2019-01-04T18:33:43.290Z,9.98
2019-01-04T18:36:12.084Z,11.47
2019-01-04T18:38:42.209Z,9.73
2019-01-04T18:41:10.923Z,10.50
2019-01-04T18:43:39.605Z,10.13
2019-01-04T18:46:09.619Z,9.03
2019-01-04T18:48:38.377Z,8.73
2019-01-04T18:51:06.967Z,10.50
2019-01-04T18:53:35.623Z,9.77
2019-01-04T18:56:04.235Z,9.13
2019-01-04T18:58:32.893Z,10.13
2019-01-04T19:01:01.634Z,10.25
2019-01-04T19:03:30.186Z,9.40
2019-01-04T19:06:00.087Z,10.32
2019-01-04T19:08:28.670Z,10.27
2019-01-04T19:10:57.249Z,10.80
2019-01-04T19:13:26.858Z,9.80
2019-01-04T19:15:55.943Z,9.20
2019-01-04T19:18:24.516Z,10.40
2019-01-04T19:20:53.340Z,10.50
2019-01-04T19:23:22.080Z,9.73
2019-01-04T19:25:50.764Z,12.53
2019-01-04T19:28:19.579Z,11.70
2019-01-04T19:30:48.345Z,10.73
2019-01-04T19:33:18.989Z,11.37
2019-01-04T19:35:47.966Z,10.90
2019-01-04T19:38:16.841Z,10.90
2019-01-04T19:40:46.831Z,9.93
2019-01-04T19:43:15.512Z,11.30
2019-01-04T19:45:44.183Z,10.87
2019-01-04T19:48:12.814Z,11.00
2019-01-04T19:50:41.516Z,11.33
2019-01-04T19:53:10.243Z,11.93
2019-01-04T19:55:39.328Z,11.27
2019-01-04T19:58:08.006Z,10.90
2019-01-04T20:00:37.188Z,10.63
2019-01-04T20:03:05.828Z,11.30
2019-01-04T20:06:17.483Z,11.50
2019-01-04T20:09:42.619Z,9.93
2019-01-04T20:13:22.004Z,11.30
2019-01-04T20:16:39.812Z,10.53
2019-01-04T20:19:28.176Z,11.80
2019-01-04T20:22:18.979Z,13.28
2019-01-04T20:25:02.984Z,13.10
2019-01-04T20:27:59.978Z,12.53
2019-01-04T20:30:53.692Z,11.67
2019-01-04T20:33:37.568Z,12.03
2019-01-04T20:36:25.144Z,11.50
2019-01-04T20:39:25.204Z,11.97
2019-01-04T20:42:12.895Z,12.10
2019-01-04T20:45:02.799Z,11.90
2019-01-04T20:48:09.271Z,11.67
2019-01-04T20:50:59.985Z,13.48
2019-01-04T20:53:46.439Z,12.73
2019-01-04T20:56:32.759Z,13.67
2019-01-04T20:59:26.451Z,12.30
2019-01-04T21:02:17.325Z,13.23
2019-01-04T21:05:07.965Z,11.73
2019-01-04T21:07:46.374Z,11.33
2019-01-04T21:10:32.879Z,11.57
2019-01-04T21:13:14.601Z,13.03
2019-01-04T21:16:01.085Z,12.00
2019-01-04T21:18:47.424Z,13.10
2019-01-04T21:21:33.870Z,12.97
2019-01-04T21:24:33.900Z,13.73
2019-01-04T21:27:21.549Z,16.10
2019-01-04T21:30:10.232Z,12.87
2019-01-04T21:33:01.055Z,11.03
2019-01-04T21:35:47.903Z,12.37
2019-01-04T21:38:34.182Z,10.50
2019-01-04T21:41:21.853Z,11.40
2019-01-04T21:44:08.338Z,10.27
2019-01-04T21:46:57.762Z,10.03
2019-01-04T21:49:50.105Z,10.47
2019-01-04T21:52:36.501Z,10.30
2019-01-04T21:55:20.108Z,9.98
2019-01-04T21:58:07.754Z,9.70
2019-01-04T22:01:04.841Z,9.00
2019-01-04T22:03:51.054Z,10.05
2019-01-04T22:06:37.340Z,9.53
2019-01-04T22:09:25.676Z,9.30
2019-01-04T22:12:11.896Z,9.37
2019-01-04T22:15:05.660Z,8.83
2019-01-04T22:17:56.144Z,9.83
2019-01-04T22:20:58.766Z,10.03
2019-01-04T22:24:01.981Z,9.37
2019-01-04T22:26:50.051Z,9.88
2019-01-04T22:29:49.996Z,8.63
2019-01-04T22:32:36.366Z,8.37
2019-01-04T22:35:22.842Z,8.20
2019-01-04T22:38:09.162Z,9.83
2019-01-04T22:40:55.549Z,9.97
2019-01-04T22:43:49.239Z,12.50
2019-01-04T22:46:41.966Z,12.20
2019-01-04T22:49:35.673Z,10.07
2019-01-04T22:52:38.571Z,10.85
2019-01-04T22:55:25.321Z,15.20
2019-01-04T22:58:03.763Z,10.15
2019-01-04T23:00:50.312Z,10.23
2019-01-04T23:03:46.784Z,9.73
2019-01-04T23:06:47.107Z,9.30
2019-01-04T23:09:40.568Z,9.90
2019-01-04T23:12:43.275Z,8.50
2019-01-04T23:15:32.627Z,8.77
2019-01-04T23:18:26.177Z,8.13
2019-01-04T23:21:12.657Z,8.23
2019-01-04T23:24:06.519Z,8.43
2019-01-04T23:26:54.196Z,7.30
2019-01-04T23:29:36.937Z,8.40
2019-01-04T23:32:23.476Z,9.10
2019-01-04T23:35:16.959Z,9.75
2019-01-04T23:38:10.460Z,7.77
2019-01-04T23:41:10.415Z,9.67
2019-01-04T23:43:57.520Z,9.03
2019-01-04T23:46:52.613Z,8.50
2019-01-04T23:49:37.180Z,10.17
2019-01-04T23:52:29.098Z,9.77
2019-01-04T23:55:20.830Z,11.57
2019-01-04T23:58:07.479Z,10.37
